Time;durP1;ratioP1;P1;durP2;ratioP2;P2;SDS_P1;SDS_P2;PMS_P1;PMS_P2;Temp;Humidity;BMP_temperature;BMP_pressure;BME280_temperature;BME280_humidity;BME280_pressure;Samples;Min_cycle;Max_cycle;Signal;HPM_P1;HPM_P2
2023/09/14 00:00:52;;;;;;;3.90;2.08;;;10.80;99.90;;;;;;5055433;28;20040;-71
2023/09/14 00:03:18;;;;;;;4.22;2.40;;;10.80;99.90;;;;;;5040348;28;20044;-71
2023/09/14 00:05:46;;;;;;;8.25;2.95;;;10.70;99.90;;;;;;5042212;28;20049;-71
2023/09/14 00:08:14;;;;;;;7.25;3.55;;;10.60;99.90;;;;;;5038403;28;20816;-71
2023/09/14 00:10:40;;;;;;;6.13;3.38;;;10.70;99.90;;;;;;5056094;28;20044;-71
2023/09/14 00:13:07;;;;;;;6.60;3.53;;;10.60;99.90;;;;;;5038460;28;20044;-72
2023/09/14 00:15:34;;;;;;;5.63;3.25;;;10.60;99.90;;;;;;5084618;28;20040;-71
2023/09/14 00:18:00;;;;;;;5.85;3.20;;;10.60;99.90;;;;;;5056986;28;20049;-71
2023/09/14 00:20:28;;;;;;;5.72;3.20;;;10.60;99.90;;;;;;5056678;28;20491;-71
2023/09/14 00:22:57;;;;;;;6.20;3.25;;;10.60;99.90;;;;;;5044895;28;20048;-71
2023/09/14 00:25:24;;;;;;;5.17;2.83;;;10.60;99.90;;;;;;5041268;28;20163;-71
2023/09/14 00:27:53;;;;;;;9.07;4.05;;;10.50;99.90;;;;;;5041923;28;20044;-71
2023/09/14 00:30:23;;;;;;;7.80;4.20;;;10.50;99.90;;;;;;5055045;28;20574;-71
2023/09/14 00:32:52;;;;;;;5.55;3.25;;;10.40;99.90;;;;;;5057798;28;20101;-71
2023/09/14 00:35:19;;;;;;;5.18;3.10;;;10.30;99.90;;;;;;5057970;28;20056;-71
2023/09/14 00:37:45;;;;;;;7.97;3.42;;;10.30;99.90;;;;;;5053932;28;20120;-71
2023/09/14 00:40:13;;;;;;;6.43;2.80;;;10.30;99.90;;;;;;5059915;28;20036;-71
2023/09/14 00:42:44;;;;;;;7.05;3.17;;;10.30;99.90;;;;;;5055204;28;20135;-71
2023/09/14 00:45:15;;;;;;;7.25;4.18;;;10.20;99.90;;;;;;5044584;28;20040;-74
2023/09/14 00:47:44;;;;;;;5.45;3.30;;;10.30;99.90;;;;;;5102595;27;20590;-71
2023/09/14 00:50:15;;;;;;;5.38;3.20;;;10.30;99.90;;;;;;5063018;28;20040;-71
2023/09/14 00:52:41;;;;;;;;;;;10.20;99.90;;;;;;5058239;28;20235;-71
2023/09/14 00:55:08;;;;;;;6.25;3.17;;;10.20;99.90;;;;;;5059120;28;20945;-71
2023/09/14 00:57:35;;;;;;;6.55;3.50;;;10.20;99.90;;;;;;5057447;28;20044;-71
2023/09/14 01:00:06;;;;;;;5.30;3.33;;;10.30;99.90;;;;;;5059477;28;20916;-71
2023/09/14 01:02:33;;;;;;;6.18;3.60;;;10.30;99.90;;;;;;5055518;28;20078;-71
2023/09/14 01:05:01;;;;;;;6.97;3.80;;;10.30;99.90;;;;;;5044282;28;20079;-71
2023/09/14 01:07:27;;;;;;;5.78;3.63;;;10.40;99.90;;;;;;5057720;28;20055;-71
2023/09/14 01:09:53;;;;;;;9.20;4.22;;;10.40;99.90;;;;;;5044253;28;20041;-71
2023/09/14 01:12:19;;;;;;;6.82;3.72;;;10.40;99.90;;;;;;5045983;28;20091;-71
2023/09/14 01:15:00;;;;;;;7.95;4.22;;;10.30;99.90;;;;;;5046252;28;20055;-71
2023/09/14 01:18:01;;;;;;;7.38;3.97;;;10.40;99.90;;;;;;5096286;27;20075;-71
2023/09/14 01:20:54;;;;;;;7.03;3.75;;;10.40;99.90;;;;;;5042083;28;20060;-71
2023/09/14 01:23:41;;;;;;;7.25;3.95;;;10.40;99.90;;;;;;5060415;28;20080;-72
2023/09/14 01:26:08;;;;;;;5.65;3.58;;;10.40;99.90;;;;;;5072723;28;20063;-72
2023/09/14 01:28:34;;;;;;;5.82;3.78;;;10.40;99.90;;;;;;5057580;28;20123;-72
2023/09/14 01:31:00;;;;;;;6.07;3.90;;;10.40;99.90;;;;;;5061599;28;20127;-72
2023/09/14 01:33:27;;;;;;;7.18;3.47;;;10.40;99.90;;;;;;5066899;28;20446;-72
2023/09/14 01:36:13;;;;;;;5.93;3.45;;;10.40;99.90;;;;;;5060739;28;20037;-72
2023/09/14 01:38:40;;;;;;;5.47;3.10;;;10.40;99.90;;;;;;5090596;28;20029;-72
2023/09/14 01:41:07;;;;;;;6.68;3.55;;;10.30;99.90;;;;;;5040793;28;20056;-72
2023/09/14 01:43:34;;;;;;;7.45;4.03;;;10.40;99.90;;;;;;5053939;28;20048;-72
2023/09/14 01:46:02;;;;;;;8.48;3.92;;;10.30;99.90;;;;;;5060267;28;20463;-72
2023/09/14 01:48:28;;;;;;;7.28;4.38;;;10.30;99.90;;;;;;5047185;28;20118;-71
2023/09/14 01:50:54;;;;;;;9.73;4.80;;;10.20;99.90;;;;;;5060243;28;20045;-72
2023/09/14 01:53:20;;;;;;;6.55;3.42;;;10.20;99.90;;;;;;5039420;28;20083;-72
2023/09/14 01:55:46;;;;;;;6.40;3.85;;;10.10;99.90;;;;;;5058089;28;20055;-72
2023/09/14 01:58:12;;;;;;;6.78;3.65;;;10.00;99.90;;;;;;5082033;28;20044;-72
2023/09/14 02:00:38;;;;;;;4.40;3.60;;;10.00;99.90;;;;;;5058658;28;20032;-72
2023/09/14 02:03:04;;;;;;;8.18;4.43;;;10.00;99.90;;;;;;5047308;28;20051;-72
2023/09/14 02:05:30;;;;;;;6.18;3.65;;;10.00;99.90;;;;;;5047601;28;20041;-72
2023/09/14 02:07:56;;;;;;;7.90;4.57;;;10.00;99.90;;;;;;5058836;28;20070;-72
2023/09/14 02:10:22;;;;;;;5.35;3.47;;;10.00;99.90;;;;;;5052924;28;20051;-72
2023/09/14 02:12:51;;;;;;;8.48;3.72;;;10.00;99.90;;;;;;5052328;28;20640;-72
2023/09/14 02:15:17;;;;;;;7.28;3.30;;;9.90;99.90;;;;;;5055292;28;20056;-71
2023/09/14 02:17:43;;;;;;;7.05;3.30;;;9.90;99.90;;;;;;5057760;28;20040;-72
2023/09/14 02:20:09;;;;;;;4.55;3.20;;;9.90;99.90;;;;;;5053378;28;20243;-72
2023/09/14 02:22:35;;;;;;;7.00;3.63;;;9.90;99.90;;;;;;5058838;28;20064;-72
2023/09/14 02:25:02;;;;;;;6.90;3.60;;;9.80;99.90;;;;;;5046435;28;20053;-72
2023/09/14 02:27:27;;;;;;;6.63;3.70;;;9.80;99.90;;;;;;5044642;28;20071;-72
2023/09/14 02:29:54;;;;;;;5.20;3.75;;;9.80;99.90;;;;;;5051417;28;20045;-72
2023/09/14 02:32:20;;;;;;;5.78;4.10;;;9.80;99.90;;;;;;5050585;28;20522;-72
2023/09/14 02:34:46;;;;;;;4.95;2.83;;;9.80;99.90;;;;;;5047297;28;20072;-72
2023/09/14 02:37:11;;;;;;;5.57;3.08;;;9.80;99.90;;;;;;5045520;28;20146;-72
2023/09/14 02:39:37;;;;;;;5.53;3.47;;;9.80;99.90;;;;;;5050274;28;20128;-72
2023/09/14 02:42:03;;;;;;;4.05;3.03;;;9.80;99.90;;;;;;5048947;28;20156;-72
2023/09/14 02:44:29;;;;;;;7.18;3.17;;;9.80;99.90;;;;;;5051102;28;20404;-73
2023/09/14 02:46:54;;;;;;;5.85;3.25;;;9.70;99.90;;;;;;5048320;28;20153;-72
2023/09/14 02:49:20;;;;;;;6.45;3.53;;;9.70;99.90;;;;;;5047244;28;20048;-72
2023/09/14 02:51:46;;;;;;;7.30;3.17;;;9.70;99.90;;;;;;5043839;28;20418;-72
2023/09/14 02:54:11;;;;;;;6.22;3.47;;;9.70;99.90;;;;;;5047906;28;20498;-72
2023/09/14 02:56:37;;;;;;;6.05;3.20;;;9.70;99.90;;;;;;5061754;28;20408;-72
2023/09/14 02:59:03;;;;;;;4.85;2.70;;;9.70;99.90;;;;;;5056694;28;20186;-72
2023/09/14 03:01:29;;;;;;;5.55;3.15;;;9.70;99.90;;;;;;5048844;28;20437;-71
2023/09/14 03:03:55;;;;;;;5.25;3.38;;;9.60;99.90;;;;;;5042747;28;20116;-71
2023/09/14 03:06:21;;;;;;;5.93;3.40;;;9.50;99.90;;;;;;5057470;28;20343;-72
2023/09/14 03:08:46;;;;;;;4.93;3.38;;;9.40;99.90;;;;;;5050740;28;20044;-71
2023/09/14 03:11:12;;;;;;;5.30;3.33;;;9.40;99.90;;;;;;5047473;28;20045;-72
2023/09/14 03:13:38;;;;;;;5.05;3.40;;;9.40;99.90;;;;;;5053110;28;20495;-71
2023/09/14 03:16:04;;;;;;;5.93;3.42;;;9.40;99.90;;;;;;5063079;28;20060;-72
2023/09/14 03:18:29;;;;;;;3.80;2.53;;;9.40;99.90;;;;;;5062888;28;20487;-71
2023/09/14 03:20:56;;;;;;;4.82;3.03;;;9.40;99.90;;;;;;5051889;28;20052;-71
2023/09/14 03:23:23;;;;;;;6.05;3.00;;;9.40;99.90;;;;;;5058610;28;20072;-72
2023/09/14 03:25:50;;;;;;;5.60;3.35;;;9.40;99.90;;;;;;5050362;28;20057;-72
2023/09/14 03:28:17;;;;;;;5.43;3.72;;;9.30;99.90;;;;;;5042164;28;20048;-72
2023/09/14 03:30:43;;;;;;;5.28;3.33;;;9.30;99.90;;;;;;5053219;28;20044;-72
2023/09/14 03:33:10;;;;;;;6.22;3.28;;;9.30;99.90;;;;;;5041399;28;20051;-72
2023/09/14 03:35:35;;;;;;;6.65;3.53;;;9.30;99.90;;;;;;5058159;28;20521;-72
2023/09/14 03:38:02;;;;;;;7.63;3.85;;;9.30;99.90;;;;;;5056131;28;20040;-72
2023/09/14 03:40:28;;;;;;;6.90;3.85;;;9.30;99.90;;;;;;5060624;28;20220;-72
2023/09/14 03:42:53;;;;;;;6.43;3.50;;;9.30;99.90;;;;;;5046376;28;20130;-71
2023/09/14 03:45:19;;;;;;;5.47;3.25;;;9.30;99.90;;;;;;5051946;28;20036;-72
2023/09/14 03:47:45;;;;;;;4.82;3.67;;;9.30;99.90;;;;;;5057069;28;20040;-72
2023/09/14 03:50:14;;;;;;;7.38;3.65;;;9.30;99.90;;;;;;5059828;28;20577;-72
2023/09/14 03:52:39;;;;;;;5.82;3.33;;;9.30;99.90;;;;;;5054450;28;20032;-72
2023/09/14 03:55:07;;;;;;;6.13;3.60;;;9.20;99.90;;;;;;5044826;28;20465;-72
2023/09/14 03:57:33;;;;;;;5.53;3.22;;;9.20;99.90;;;;;;5048862;28;20049;-72
2023/09/14 03:59:58;;;;;;;6.22;3.10;;;9.20;99.90;;;;;;5059846;28;20043;-71
2023/09/14 04:02:24;;;;;;;7.20;3.30;;;9.20;99.90;;;;;;5058594;28;20376;-71
2023/09/14 04:04:50;;;;;;;5.43;3.42;;;9.20;99.90;;;;;;5056189;28;20138;-71
2023/09/14 04:07:16;;;;;;;6.15;3.10;;;9.10;99.90;;;;;;5053654;28;20494;-71
2023/09/14 04:09:43;;;;;;;7.68;3.97;;;9.10;99.90;;;;;;5045681;28;20041;-71
2023/09/14 04:12:09;;;;;;;7.93;4.57;;;9.00;99.90;;;;;;5060613;28;20115;-71
2023/09/14 04:14:35;;;;;;;5.82;3.85;;;9.00;99.90;;;;;;5053252;28;20550;-72
2023/09/14 04:17:01;;;;;;;7.10;4.45;;;9.00;99.90;;;;;;5063999;28;20040;-71
2023/09/14 04:19:28;;;;;;;6.15;3.85;;;9.00;99.90;;;;;;5060590;28;20056;-71
2023/09/14 04:21:55;;;;;;;7.65;4.20;;;9.10;99.90;;;;;;5047374;28;20503;-71
2023/09/14 04:24:21;;;;;;;6.07;3.95;;;9.10;99.90;;;;;;5045876;28;20119;-71
2023/09/14 04:26:48;;;;;;;5.10;3.38;;;9.10;99.90;;;;;;5053342;28;20044;-71
2023/09/14 04:29:14;;;;;;;6.13;3.17;;;9.00;99.90;;;;;;5055006;28;20271;-71
2023/09/14 04:31:43;;;;;;;6.25;3.58;;;9.00;99.90;;;;;;5044392;28;20051;-72
2023/09/14 04:34:09;;;;;;;6.32;3.20;;;9.00;99.90;;;;;;5047758;28;20044;-72
2023/09/14 04:36:37;;;;;;;7.05;3.55;;;9.00;99.90;;;;;;5039110;28;20126;-72
2023/09/14 04:39:03;;;;;;;7.38;4.03;;;9.00;99.90;;;;;;5067534;28;20052;-72
2023/09/14 04:41:30;;;;;;;7.00;3.83;;;8.90;99.90;;;;;;5062901;28;20398;-72
2023/09/14 04:43:56;;;;;;;6.15;3.45;;;8.90;99.90;;;;;;5060876;28;20052;-72
2023/09/14 04:46:22;;;;;;;5.88;3.60;;;9.00;99.90;;;;;;5064652;28;20040;-72
2023/09/14 04:48:49;;;;;;;6.15;3.78;;;9.00;99.90;;;;;;5059080;28;20487;-72
2023/09/14 04:51:15;;;;;;;6.00;3.50;;;9.00;99.90;;;;;;5047373;28;20053;-72
2023/09/14 04:53:43;;;;;;;5.25;3.35;;;9.00;99.90;;;;;;5053890;28;20407;-72
2023/09/14 04:56:09;;;;;;;6.15;3.80;;;9.00;99.90;;;;;;5066905;28;20255;-73
2023/09/14 04:58:35;;;;;;;5.97;3.75;;;8.90;99.90;;;;;;5061814;28;20052;-73
2023/09/14 05:01:00;;;;;;;5.95;3.97;;;9.00;99.90;;;;;;5057901;28;20462;-72
2023/09/14 05:03:26;;;;;;;7.03;4.57;;;8.90;99.90;;;;;;5040837;28;20041;-72
2023/09/14 05:05:54;;;;;;;5.72;3.85;;;8.90;99.90;;;;;;5047335;28;20093;-73
2023/09/14 05:08:20;;;;;;;6.45;3.58;;;8.90;99.90;;;;;;5064467;28;20063;-72
2023/09/14 05:10:50;;;;;;;5.85;3.70;;;8.90;99.90;;;;;;5040928;28;20054;-72
2023/09/14 05:13:18;;;;;;;5.25;3.92;;;8.80;99.90;;;;;;5059754;28;20041;-71
2023/09/14 05:15:45;;;;;;;6.05;3.47;;;8.80;99.90;;;;;;5062489;28;20452;-71
2023/09/14 05:18:10;;;;;;;6.53;4.05;;;8.80;99.90;;;;;;5067659;28;20048;-71
2023/09/14 05:20:36;;;;;;;5.45;3.10;;;8.80;99.90;;;;;;5067965;28;20036;-71
2023/09/14 05:23:03;;;;;;;5.18;3.17;;;8.80;99.90;;;;;;5042882;28;20055;-71
2023/09/14 05:25:29;;;;;;;6.10;3.70;;;8.70;99.90;;;;;;5063828;28;20036;-71
2023/09/14 05:27:55;;;;;;;6.18;3.90;;;8.70;99.90;;;;;;5056656;28;20052;-71
2023/09/14 05:30:23;;;;;;;5.10;3.35;;;8.80;99.90;;;;;;5043024;28;20041;-72
2023/09/14 05:32:49;;;;;;;7.25;3.97;;;8.80;99.90;;;;;;5060523;28;20040;-71
2023/09/14 05:35:15;;;;;;;7.05;3.33;;;8.80;99.90;;;;;;5058935;28;20117;-71
2023/09/14 05:37:41;;;;;;;5.22;3.47;;;8.80;99.90;;;;;;5055965;28;20499;-71
2023/09/14 05:40:09;;;;;;;6.78;3.60;;;8.80;99.90;;;;;;5060499;28;20043;-71
2023/09/14 05:42:37;;;;;;;5.55;3.22;;;8.80;99.90;;;;;;5057172;28;20049;-71
2023/09/14 05:45:11;;;;;;;5.28;3.70;;;8.80;99.90;;;;;;5060780;28;20049;-71
2023/09/14 05:47:38;;;;;;;6.93;3.25;;;8.90;99.90;;;;;;5050080;28;20052;-71
2023/09/14 05:50:06;;;;;;;8.85;5.40;;;8.90;99.90;;;;;;5046080;28;20036;-73
2023/09/14 05:52:31;;;;;;;6.07;4.20;;;9.00;99.90;;;;;;5059482;28;20052;-73
2023/09/14 05:54:58;;;;;;;6.03;3.40;;;9.00;99.90;;;;;;5061042;28;20263;-73
2023/09/14 05:57:24;;;;;;;4.43;3.28;;;9.10;99.90;;;;;;5043636;28;20099;-73
2023/09/14 05:59:50;;;;;;;7.28;4.20;;;9.10;99.90;;;;;;5042090;28;20095;-73
2023/09/14 06:02:18;;;;;;;5.88;3.63;;;9.10;99.90;;;;;;5055971;28;20056;-73
2023/09/14 06:04:45;;;;;;;5.53;3.65;;;9.10;99.90;;;;;;5045210;28;20041;-73
2023/09/14 06:07:10;;;;;;;9.10;4.82;;;9.10;99.90;;;;;;5046116;28;20094;-73
2023/09/14 06:09:36;;;;;;;4.35;3.10;;;9.10;99.90;;;;;;5058249;28;20048;-74
2023/09/14 06:12:03;;;;;;;5.65;3.90;;;9.10;99.90;;;;;;5060717;28;20052;-73
2023/09/14 06:14:29;;;;;;;6.28;3.15;;;9.10;99.90;;;;;;5053422;28;20067;-73
2023/09/14 06:16:54;;;;;;;6.90;3.30;;;9.10;99.90;;;;;;5046233;28;20044;-74
2023/09/14 06:19:20;;;;;;;6.28;3.72;;;9.20;99.90;;;;;;5049211;28;20048;-74
2023/09/14 06:21:46;;;;;;;5.70;3.53;;;9.30;99.90;;;;;;5048433;28;20048;-74
2023/09/14 06:24:12;;;;;;;6.97;3.83;;;9.40;99.90;;;;;;5056716;28;20045;-74
2023/09/14 06:26:38;;;;;;;7.80;3.80;;;9.40;99.90;;;;;;5047222;28;20056;-74
2023/09/14 06:29:04;;;;;;;5.20;3.25;;;9.50;99.90;;;;;;5043979;28;20041;-75
2023/09/14 06:31:30;;;;;;;6.85;3.85;;;9.60;99.90;;;;;;5050437;28;20048;-74
2023/09/14 06:33:55;;;;;;;5.47;3.47;;;9.70;99.90;;;;;;5048899;28;20529;-74
2023/09/14 06:36:21;;;;;;;4.93;3.13;;;9.70;99.90;;;;;;5045718;28;20044;-74
2023/09/14 06:38:48;;;;;;;6.40;3.97;;;9.80;99.90;;;;;;5045146;28;20083;-74
2023/09/14 06:41:15;;;;;;;5.97;3.70;;;9.90;99.90;;;;;;5056484;28;20144;-74
2023/09/14 06:43:45;;;;;;;6.63;3.63;;;9.90;99.90;;;;;;5062093;28;20055;-75
2023/09/14 06:46:11;;;;;;;;;;;10.00;99.90;;;;;;5063164;28;20078;-74
2023/09/14 06:48:38;;;;;;;7.28;3.38;;;10.00;99.90;;;;;;5056458;28;19920;-74
2023/09/14 06:51:05;;;;;;;6.22;3.40;;;10.10;99.90;;;;;;5060545;28;20445;-74
2023/09/14 06:53:34;;;;;;;6.72;3.30;;;10.20;99.90;;;;;;5061204;28;20665;-74
2023/09/14 06:56:13;;;;;;;5.85;3.47;;;10.30;99.90;;;;;;5043192;28;20049;-74
2023/09/14 06:58:39;;;;;;;5.93;3.30;;;10.40;99.90;;;;;;5047136;28;20049;-74
2023/09/14 07:01:05;;;;;;;6.90;3.47;;;10.50;99.90;;;;;;5060759;28;20525;-74
2023/09/14 07:03:33;;;;;;;6.43;3.22;;;10.50;99.90;;;;;;5047645;28;20045;-74
2023/09/14 07:05:58;;;;;;;8.05;3.38;;;10.60;99.90;;;;;;5047380;28;20136;-74
2023/09/14 07:08:25;;;;;;;7.35;4.22;;;10.70;99.90;;;;;;5041859;28;20552;-74
2023/09/14 07:10:51;;;;;;;8.45;3.55;;;10.90;99.90;;;;;;5046769;28;20127;-75
2023/09/14 07:13:18;;;;;;;9.32;3.72;;;11.00;99.90;;;;;;5063777;28;20068;-75
2023/09/14 07:15:43;;;;;;;6.53;3.95;;;11.10;99.90;;;;;;5046630;28;20046;-74
2023/09/14 07:18:11;;;;;;;6.80;4.72;;;11.30;99.90;;;;;;5054257;28;20048;-74
2023/09/14 07:20:37;;;;;;;10.10;5.28;;;11.40;99.90;;;;;;5046792;28;20071;-75
2023/09/14 07:23:02;;;;;;;10.00;5.05;;;11.60;99.90;;;;;;5058057;28;20164;-74
2023/09/14 07:25:28;;;;;;;11.27;5.05;;;11.80;99.90;;;;;;5054631;28;20044;-74
2023/09/14 07:27:54;;;;;;;7.45;4.22;;;12.00;99.90;;;;;;5064233;28;20127;-76
2023/09/14 07:30:20;;;;;;;8.82;4.18;;;12.10;99.90;;;;;;5061873;28;20087;-74
2023/09/14 07:32:45;;;;;;;7.43;4.32;;;12.30;99.90;;;;;;5047511;28;20048;-74
2023/09/14 07:35:12;;;;;;;7.75;4.05;;;12.40;99.90;;;;;;5047187;28;20037;-74
2023/09/14 07:37:38;;;;;;;9.02;3.42;;;12.50;99.90;;;;;;5062764;28;20118;-74
2023/09/14 07:40:05;;;;;;;7.47;3.42;;;12.70;99.90;;;;;;5043482;28;20045;-74
2023/09/14 07:42:31;;;;;;;9.35;3.72;;;12.90;99.90;;;;;;5095379;28;20056;-74
2023/09/14 07:44:56;;;;;;;6.60;2.90;;;13.00;99.90;;;;;;5056256;28;20057;-74
2023/09/14 07:47:29;;;;;;;8.18;3.03;;;13.20;99.90;;;;;;5051560;28;20047;-74
2023/09/14 07:49:55;;;;;;;7.65;3.25;;;13.40;99.90;;;;;;5057825;28;20041;-74
2023/09/14 07:52:21;;;;;;;10.77;3.50;;;13.50;99.90;;;;;;5048950;28;20560;-74
2023/09/14 07:54:47;;;;;;;8.55;3.17;;;13.70;99.90;;;;;;5059212;28;20045;-74
2023/09/14 07:57:13;;;;;;;8.90;3.35;;;13.90;99.90;;;;;;5055038;28;20102;-74
2023/09/14 07:59:39;;;;;;;10.80;3.20;;;14.10;99.90;;;;;;5078892;28;20037;-74
2023/09/14 08:02:07;;;;;;;7.35;3.60;;;14.30;99.90;;;;;;5047944;28;20126;-74
2023/09/14 08:04:36;;;;;;;7.68;3.03;;;14.50;99.90;;;;;;5049325;28;20048;-74
2023/09/14 08:07:02;;;;;;;10.45;3.33;;;14.80;99.90;;;;;;5054458;28;20045;-74
2023/09/14 08:09:27;;;;;;;6.45;2.80;;;15.00;99.90;;;;;;5048642;28;20559;-74
2023/09/14 08:11:53;;;;;;;8.38;2.72;;;15.20;99.90;;;;;;5057698;28;20548;-74
2023/09/14 08:14:19;;;;;;;8.25;2.60;;;15.30;99.90;;;;;;5065715;28;20044;-73
2023/09/14 08:16:45;;;;;;;6.28;2.53;;;15.50;99.90;;;;;;5091665;28;20036;-74
2023/09/14 08:19:11;;;;;;;6.80;2.65;;;15.70;99.90;;;;;;5064294;28;20056;-74
2023/09/14 08:21:37;;;;;;;7.70;2.85;;;15.90;99.90;;;;;;5053424;28;20502;-74
2023/09/14 08:24:03;;;;;;;7.95;2.38;;;16.00;99.90;;;;;;5057008;28;20080;-74
2023/09/14 08:26:29;;;;;;;5.68;2.58;;;16.10;99.90;;;;;;5046607;28;20118;-73
2023/09/14 08:28:55;;;;;;;8.32;2.50;;;16.30;99.90;;;;;;5060901;28;20506;-76
2023/09/14 08:31:21;;;;;;;8.88;2.15;;;16.40;99.90;;;;;;5042132;28;20028;-73
2023/09/14 08:33:47;;;;;;;7.07;2.05;;;16.40;99.90;;;;;;5059848;28;20040;-73
2023/09/14 08:36:13;;;;;;;8.40;2.05;;;16.60;99.90;;;;;;5060536;28;20415;-73
2023/09/14 08:38:38;;;;;;;8.20;2.42;;;16.60;99.90;;;;;;5057403;28;20039;-73
2023/09/14 08:41:12;;;;;;;8.65;2.22;;;16.70;99.90;;;;;;5043906;28;20664;-73
2023/09/14 08:43:40;;;;;;;6.82;2.22;;;16.80;99.90;;;;;;5054784;28;20051;-73
2023/09/14 08:46:09;;;;;;;6.00;2.08;;;16.90;99.90;;;;;;5040462;28;20115;-73
2023/09/14 08:48:37;;;;;;;9.00;2.63;;;17.10;99.90;;;;;;5053211;28;20110;-73
2023/09/14 08:51:05;;;;;;;7.07;2.25;;;17.20;99.90;;;;;;5042619;28;20128;-73
2023/09/14 08:53:32;;;;;;;7.28;2.05;;;17.30;99.90;;;;;;5046449;28;20047;-74
2023/09/14 08:55:59;;;;;;;7.72;2.30;;;17.40;99.90;;;;;;5046454;28;20040;-73
2023/09/14 08:58:25;;;;;;;5.97;2.03;;;17.50;99.90;;;;;;5047929;28;20080;-74
2023/09/14 09:00:53;;;;;;;10.98;2.13;;;17.50;99.90;;;;;;5093084;28;20545;-74
2023/09/14 09:03:19;;;;;;;7.45;2.03;;;17.60;99.90;;;;;;5058028;28;20049;-73
2023/09/14 09:05:45;;;;;;;7.53;2.00;;;17.70;99.90;;;;;;5062415;28;20047;-74
2023/09/14 09:08:12;;;;;;;6.85;2.35;;;17.70;99.90;;;;;;5041916;28;20052;-74
2023/09/14 09:10:40;;;;;;;9.38;2.38;;;17.80;99.90;;;;;;5056970;28;20049;-73
2023/09/14 09:13:06;;;;;;;6.32;2.20;;;17.80;99.90;;;;;;5033842;28;20159;-73
2023/09/14 09:15:36;;;;;;;8.25;2.38;;;17.90;99.90;;;;;;5063858;28;20119;-74
2023/09/14 09:18:10;;;;;;;6.68;2.40;;;17.90;99.90;;;;;;5058924;28;20402;-74
2023/09/14 09:20:40;;;;;;;10.07;2.55;;;17.90;99.90;;;;;;5044659;28;20040;-73
2023/09/14 09:23:07;;;;;;;6.07;2.53;;;17.90;99.90;;;;;;5031919;28;20120;-74
2023/09/14 09:25:53;;;;;;;10.57;2.40;;;18.00;99.90;;;;;;5055914;28;20052;-73
2023/09/14 09:28:27;;;;;;;5.63;2.40;;;18.00;99.90;;;;;;5040796;28;20071;-73
2023/09/14 09:30:54;;;;;;;7.60;2.53;;;18.00;99.90;;;;;;5056661;28;20058;-74
2023/09/14 09:33:36;;;;;;;8.73;2.33;;;18.10;99.90;;;;;;5062045;28;20053;-74
2023/09/14 09:36:15;;;;;;;8.88;2.85;;;18.20;99.90;;;;;;5041729;28;20048;-74
2023/09/14 09:38:45;;;;;;;7.18;2.97;;;18.30;99.90;;;;;;5066148;28;20244;-74
2023/09/14 09:41:15;;;;;;;7.65;2.85;;;18.30;99.90;;;;;;5052813;28;20428;-74
2023/09/14 09:43:41;;;;;;;7.88;2.97;;;18.30;99.90;;;;;;5088568;28;20041;-74
2023/09/14 09:46:15;;;;;;;6.32;2.20;;;18.40;99.90;;;;;;5048431;28;20098;-74
2023/09/14 09:48:41;;;;;;;8.05;2.28;;;18.50;99.90;;;;;;5064987;28;20052;-74
2023/09/14 09:51:07;;;;;;;7.00;2.38;;;18.50;99.90;;;;;;5046650;28;20044;-74
2023/09/14 09:53:35;;;;;;;7.88;2.60;;;18.60;99.90;;;;;;5057646;28;20037;-74
2023/09/14 09:56:02;;;;;;;9.50;2.55;;;18.60;99.90;;;;;;5061827;28;20056;-74
2023/09/14 09:58:38;;;;;;;10.00;2.33;;;18.60;99.90;;;;;;5065411;28;20086;-76
2023/09/14 10:01:04;;;;;;;6.38;1.90;;;18.70;99.90;;;;;;5048513;28;20937;-76
2023/09/14 10:03:31;;;;;;;6.05;2.28;;;18.70;99.90;;;;;;5066197;28;20041;-76
2023/09/14 10:05:57;;;;;;;6.45;2.25;;;18.80;99.90;;;;;;5046127;28;20109;-76
2023/09/14 10:08:23;;;;;;;6.93;2.35;;;18.80;99.90;;;;;;5059911;28;20044;-76
2023/09/14 10:10:52;;;;;;;6.35;2.33;;;18.90;99.90;;;;;;5052455;28;20063;-76
2023/09/14 10:13:22;;;;;;;8.32;2.58;;;18.90;99.90;;;;;;5054509;28;20044;-76
2023/09/14 10:15:53;;;;;;;8.23;2.63;;;19.00;99.90;;;;;;5047790;28;20506;-76
2023/09/14 10:18:21;;;;;;;7.80;2.28;;;19.00;99.90;;;;;;5045589;28;20037;-76
2023/09/14 10:20:50;;;;;;;6.10;1.95;;;18.90;99.90;;;;;;5058568;28;20044;-76
2023/09/14 10:23:18;;;;;;;7.73;2.30;;;18.80;99.90;;;;;;5043670;28;20151;-76
2023/09/14 10:25:49;;;;;;;8.13;2.42;;;18.80;99.90;;;;;;5044189;28;20308;-76
2023/09/14 10:28:18;;;;;;;8.35;2.85;;;19.00;99.90;;;;;;5059138;28;20530;-76
2023/09/14 10:30:45;;;;;;;7.18;2.38;;;19.00;99.90;;;;;;5046856;28;20033;-76
2023/09/14 10:33:11;;;;;;;7.43;2.20;;;19.00;99.90;;;;;;5063462;28;20127;-76
2023/09/14 10:35:42;;;;;;;6.18;2.28;;;19.20;99.90;;;;;;5046156;28;20045;-76
2023/09/14 10:38:08;;;;;;;;;;;19.30;99.90;;;;;;5055135;28;20745;-76
2023/09/14 10:40:38;;;;;;;8.15;2.72;;;19.40;99.90;;;;;;5083845;28;19925;-76
2023/09/14 10:43:05;;;;;;;9.07;2.13;;;19.20;99.90;;;;;;5045067;28;20044;-76
2023/09/14 10:45:39;;;;;;;7.45;2.63;;;19.10;99.90;;;;;;5055242;28;20047;-76
2023/09/14 10:48:08;;;;;;;11.43;2.67;;;18.90;99.90;;;;;;5042585;28;20052;-76
2023/09/14 10:50:34;;;;;;;7.63;2.33;;;18.80;99.90;;;;;;5047901;28;20044;-76
2023/09/14 10:53:01;;;;;;;8.85;2.25;;;18.80;99.90;;;;;;5058601;28;20033;-74
2023/09/14 10:55:27;;;;;;;7.18;2.08;;;18.90;99.90;;;;;;5049640;28;20088;-74
2023/09/14 10:57:53;;;;;;;10.52;2.20;;;19.00;99.90;;;;;;5062802;28;20056;-74
2023/09/14 11:00:39;;;;;;;8.65;2.63;;;19.30;99.90;;;;;;5042270;28;20075;-74
2023/09/14 11:03:06;;;;;;;5.90;2.38;;;19.50;99.90;;;;;;5045748;28;20083;-74
2023/09/14 11:05:44;;;;;;;7.28;2.25;;;19.50;99.90;;;;;;5052085;28;20563;-74
2023/09/14 11:08:16;;;;;;;6.30;2.20;;;19.50;99.90;;;;;;5049952;28;20112;-74
2023/09/14 11:11:00;;;;;;;10.15;2.50;;;19.40;99.90;;;;;;5062326;28;20106;-74
2023/09/14 11:13:28;;;;;;;7.72;2.40;;;19.20;99.90;;;;;;5081316;28;20136;-74
2023/09/14 11:16:10;;;;;;;8.55;2.75;;;19.00;99.90;;;;;;5061244;28;20534;-73
2023/09/14 11:18:42;;;;;;;6.13;2.05;;;18.80;99.90;;;;;;5073428;28;20052;-73
2023/09/14 11:21:34;;;;;;;10.30;3.03;;;18.60;99.90;;;;;;5055421;28;20044;-74
2023/09/14 11:24:02;;;;;;;5.63;2.10;;;18.60;99.90;;;;;;5045202;28;20133;-73
2023/09/14 11:26:38;;;;;;;7.93;2.47;;;18.70;99.90;;;;;;5048439;28;20048;-74
2023/09/14 11:29:08;;;;;;;9.85;2.72;;;19.10;99.90;;;;;;5043933;28;20045;-74
2023/09/14 11:31:34;;;;;;;8.80;2.55;;;19.40;99.90;;;;;;5060147;28;20044;-74
2023/09/14 11:34:12;;;;;;;7.78;2.75;;;19.50;99.90;;;;;;5043056;28;20341;-73
2023/09/14 11:36:39;;;;;;;6.82;2.45;;;19.60;99.90;;;;;;5048987;28;20123;-73
2023/09/14 11:39:13;;;;;;;6.72;2.45;;;19.60;99.90;;;;;;5041907;28;20041;-73
2023/09/14 11:41:42;;;;;;;6.78;2.20;;;19.50;99.90;;;;;;5059329;28;20550;-73
2023/09/14 11:44:08;;;;;;;4.47;2.30;;;19.30;99.90;;;;;;5054278;28;20503;-73
2023/09/14 11:46:35;;;;;;;10.07;2.50;;;19.10;99.90;;;;;;5044019;28;20696;-73
2023/09/14 11:49:02;;;;;;;7.15;2.45;;;19.00;99.90;;;;;;5063866;28;20052;-73
2023/09/14 11:51:28;;;;;;;11.38;2.92;;;18.90;99.90;;;;;;5058576;28;20041;-73
2023/09/14 11:53:59;;;;;;;7.78;2.67;;;18.70;99.90;;;;;;5043436;28;20388;-73
2023/09/14 11:56:33;;;;;;;8.93;2.47;;;18.70;99.90;;;;;;5062555;28;20088;-73
2023/09/14 11:59:00;;;;;;;6.28;2.15;;;18.70;99.90;;;;;;5036400;28;21207;-73
2023/09/14 12:01:33;;;;;;;5.88;2.42;;;18.80;99.90;;;;;;5058329;28;20060;-73
2023/09/14 12:03:59;;;;;;;5.60;2.20;;;18.80;99.90;;;;;;5059861;28;20056;-73
2023/09/14 12:06:28;;;;;;;7.68;2.42;;;18.90;99.90;;;;;;5058738;28;20045;-73
2023/09/14 12:08:54;;;;;;;7.25;2.20;;;19.10;99.20;;;;;;5056918;28;20040;-73
2023/09/14 12:11:22;;;;;;;6.63;2.50;;;19.20;99.90;;;;;;5043125;28;20245;-73
2023/09/14 12:13:54;;;;;;;6.18;2.42;;;19.40;99.90;;;;;;5057339;28;20074;-73
2023/09/14 12:16:21;;;;;;;5.95;2.55;;;19.50;99.90;;;;;;5045878;28;20495;-73
2023/09/14 12:18:48;;;;;;;6.75;1.98;;;19.50;99.30;;;;;;5089101;28;20444;-74
2023/09/14 12:21:15;;;;;;;5.88;2.35;;;19.40;99.30;;;;;;5050133;28;20049;-73
2023/09/14 12:23:44;;;;;;;7.05;2.45;;;19.30;99.70;;;;;;5061874;28;20044;-73
2023/09/14 12:26:14;;;;;;;7.68;3.08;;;19.30;99.90;;;;;;5057313;28;20037;-73
2023/09/14 12:28:43;;;;;;;6.30;2.28;;;19.20;99.90;;;;;;5066378;28;20083;-73
2023/09/14 12:31:10;;;;;;;8.45;3.33;;;19.20;99.90;;;;;;5045823;28;20051;-73
2023/09/14 12:33:37;;;;;;;8.32;3.88;;;19.20;99.90;;;;;;5063642;28;20028;-73
2023/09/14 12:36:04;;;;;;;5.57;2.10;;;19.10;99.90;;;;;;5095546;28;20040;-73
2023/09/14 12:38:31;;;;;;;7.03;2.63;;;19.10;99.90;;;;;;5042955;28;20056;-73
2023/09/14 12:40:57;;;;;;;6.45;2.60;;;19.00;99.90;;;;;;5043079;28;20045;-73
2023/09/14 12:43:24;;;;;;;6.13;2.55;;;19.00;99.40;;;;;;5061120;28;21632;-73
2023/09/14 12:45:50;;;;;;;6.05;2.92;;;18.90;99.50;;;;;;5037659;28;20040;-73
2023/09/14 12:48:16;;;;;;;8.27;2.90;;;18.90;99.90;;;;;;5052066;28;20048;-74
2023/09/14 12:50:42;;;;;;;8.27;2.45;;;19.00;99.90;;;;;;5045627;28;20428;-73
2023/09/14 12:53:14;;;;;;;6.30;2.28;;;19.10;99.90;;;;;;5038857;28;20119;-73